sensor_id;sensor_type;location;lat;lon;timestamp;pressure;altitude;pressure_sealevel;temperature;humidity
7297;BME280;40758;54.038;11.684;2023-07-31T00:01:43;100701.91;;;11.41;100.00
7297;BME280;40758;54.038;11.684;2023-07-31T00:04:09;100696.94;;;11.38;100.00
7297;BME280;40758;54.038;11.684;2023-07-31T00:06:36;100698.28;;;11.29;100.00
7297;BME280;40758;54.038;11.684;2023-07-31T00:09:03;100698.00;;;11.19;100.00
7297;BME280;40758;54.038;11.684;2023-07-31T00:11:30;100685.31;;;11.31;100.00
7297;BME280;40758;54.038;11.684;2023-07-31T00:13:57;100686.50;;;11.35;100.00
7297;BME280;40758;54.038;11.684;2023-07-31T00:16:24;100684.22;;;11.51;100.00
7297;BME280;40758;54.038;11.684;2023-07-31T00:18:51;100682.41;;;11.63;100.00
7297;BME280;40758;54.038;11.684;2023-07-31T00:21:18;100687.66;;;11.76;100.00
7297;BME280;40758;54.038;11.684;2023-07-31T00:23:44;100681.38;;;11.76;100.00
7297;BME280;40758;54.038;11.684;2023-07-31T00:26:11;100677.47;;;11.90;100.00
7297;BME280;40758;54.038;11.684;2023-07-31T00:28:37;100675.81;;;11.89;100.00
7297;BME280;40758;54.038;11.684;2023-07-31T00:31:04;100667.31;;;11.97;100.00
7297;BME280;40758;54.038;11.684;2023-07-31T00:33:31;100668.59;;;11.94;100.00
7297;BME280;40758;54.038;11.684;2023-07-31T00:35:58;100658.44;;;12.02;100.00
7297;BME280;40758;54.038;11.684;2023-07-31T00:38:24;100658.78;;;12.05;100.00
7297;BME280;40758;54.038;11.684;2023-07-31T00:40:51;100647.81;;;12.12;100.00
7297;BME280;40758;54.038;11.684;2023-07-31T00:43:18;100644.63;;;12.15;100.00
7297;BME280;40758;54.038;11.684;2023-07-31T00:45:47;100654.34;;;12.22;100.00
7297;BME280;40758;54.038;11.684;2023-07-31T00:48:14;100653.38;;;12.17;100.00
7297;BME280;40758;54.038;11.684;2023-07-31T00:50:41;100647.72;;;12.18;100.00
7297;BME280;40758;54.038;11.684;2023-07-31T00:53:08;100646.41;;;12.21;100.00
7297;BME280;40758;54.038;11.684;2023-07-31T00:55:35;100645.00;;;12.30;100.00
7297;BME280;40758;54.038;11.684;2023-07-31T00:58:01;100643.44;;;12.22;100.00
7297;BME280;40758;54.038;11.684;2023-07-31T01:00:28;100632.44;;;12.29;100.00
7297;BME280;40758;54.038;11.684;2023-07-31T01:02:55;100629.38;;;12.25;100.00
7297;BME280;40758;54.038;11.684;2023-07-31T01:05:33;100634.69;;;12.20;100.00
7297;BME280;40758;54.038;11.684;2023-07-31T01:08:18;100633.16;;;12.13;100.00
7297;BME280;40758;54.038;11.684;2023-07-31T01:10:49;100620.59;;;12.12;100.00
7297;BME280;40758;54.038;11.684;2023-07-31T01:13:17;100626.63;;;12.14;100.00
7297;BME280;40758;54.038;11.684;2023-07-31T01:15:44;100620.81;;;12.10;100.00
7297;BME280;40758;54.038;11.684;2023-07-31T01:18:11;100614.66;;;12.03;100.00
7297;BME280;40758;54.038;11.684;2023-07-31T01:20:39;100624.03;;;12.07;100.00
7297;BME280;40758;54.038;11.684;2023-07-31T01:25:59;100619.78;;;12.23;100.00
7297;BME280;40758;54.038;11.684;2023-07-31T01:31:19;100616.34;;;12.28;100.00
7297;BME280;40758;54.038;11.684;2023-07-31T01:33:46;100614.00;;;12.31;100.00
7297;BME280;40758;54.038;11.684;2023-07-31T01:36:14;100611.72;;;12.40;100.00
7297;BME280;40758;54.038;11.684;2023-07-31T01:38:41;100614.69;;;12.50;100.00
7297;BME280;40758;54.038;11.684;2023-07-31T01:41:08;100607.59;;;12.61;100.00
7297;BME280;40758;54.038;11.684;2023-07-31T01:43:35;100598.00;;;12.70;100.00
7297;BME280;40758;54.038;11.684;2023-07-31T01:46:01;100595.84;;;12.84;100.00
7297;BME280;40758;54.038;11.684;2023-07-31T01:48:28;100595.25;;;12.93;100.00
7297;BME280;40758;54.038;11.684;2023-07-31T01:50:55;100587.66;;;12.95;100.00
7297;BME280;40758;54.038;11.684;2023-07-31T01:53:22;100577.31;;;12.97;100.00
7297;BME280;40758;54.038;11.684;2023-07-31T01:55:48;100583.22;;;13.06;100.00
7297;BME280;40758;54.038;11.684;2023-07-31T01:58:15;100570.91;;;13.03;100.00
7297;BME280;40758;54.038;11.684;2023-07-31T02:00:42;100580.00;;;13.09;100.00
7297;BME280;40758;54.038;11.684;2023-07-31T02:03:09;100573.25;;;13.12;100.00
7297;BME280;40758;54.038;11.684;2023-07-31T02:05:36;100571.00;;;13.09;100.00
7297;BME280;40758;54.038;11.684;2023-07-31T02:08:03;100579.06;;;13.03;100.00
7297;BME280;40758;54.038;11.684;2023-07-31T02:10:33;100602.66;;;12.98;100.00
7297;BME280;40758;54.038;11.684;2023-07-31T02:13:00;100609.91;;;12.92;100.00
7297;BME280;40758;54.038;11.684;2023-07-31T02:15:26;100603.19;;;12.83;100.00
7297;BME280;40758;54.038;11.684;2023-07-31T02:17:53;100602.47;;;12.88;100.00
7297;BME280;40758;54.038;11.684;2023-07-31T02:20:20;100595.34;;;12.87;100.00
7297;BME280;40758;54.038;11.684;2023-07-31T02:22:46;100601.75;;;12.81;100.00
7297;BME280;40758;54.038;11.684;2023-07-31T02:25:13;100590.53;;;12.77;100.00
7297;BME280;40758;54.038;11.684;2023-07-31T02:27:40;100576.53;;;12.85;100.00
7297;BME280;40758;54.038;11.684;2023-07-31T02:30:07;100588.25;;;12.86;100.00
7297;BME280;40758;54.038;11.684;2023-07-31T02:32:34;100576.19;;;12.82;100.00
7297;BME280;40758;54.038;11.684;2023-07-31T02:35:00;100573.09;;;12.78;100.00
7297;BME280;40758;54.038;11.684;2023-07-31T02:37:27;100568.72;;;12.77;100.00
7297;BME280;40758;54.038;11.684;2023-07-31T02:39:55;100567.53;;;12.73;100.00
7297;BME280;40758;54.038;11.684;2023-07-31T02:42:22;100555.13;;;12.65;100.00
7297;BME280;40758;54.038;11.684;2023-07-31T02:44:49;100555.97;;;12.66;100.00
7297;BME280;40758;54.038;11.684;2023-07-31T02:47:17;100557.38;;;12.57;100.00
7297;BME280;40758;54.038;11.684;2023-07-31T02:49:44;100558.06;;;12.64;100.00
7297;BME280;40758;54.038;11.684;2023-07-31T02:52:11;100558.69;;;12.66;100.00
7297;BME280;40758;54.038;11.684;2023-07-31T02:54:37;100552.19;;;12.55;100.00
7297;BME280;40758;54.038;11.684;2023-07-31T02:57:04;100558.34;;;12.50;100.00
7297;BME280;40758;54.038;11.684;2023-07-31T02:59:31;100545.09;;;12.42;100.00
7297;BME280;40758;54.038;11.684;2023-07-31T03:01:58;100551.69;;;12.46;100.00
7297;BME280;40758;54.038;11.684;2023-07-31T03:04:24;100544.47;;;12.40;100.00
7297;BME280;40758;54.038;11.684;2023-07-31T03:06:51;100547.69;;;12.37;100.00
7297;BME280;40758;54.038;11.684;2023-07-31T03:09:18;100543.53;;;12.35;100.00
7297;BME280;40758;54.038;11.684;2023-07-31T03:11:44;100541.69;;;12.35;100.00
7297;BME280;40758;54.038;11.684;2023-07-31T03:14:11;100539.78;;;12.36;100.00
7297;BME280;40758;54.038;11.684;2023-07-31T03:16:38;100549.84;;;12.35;100.00
7297;BME280;40758;54.038;11.684;2023-07-31T03:19:05;100535.50;;;12.40;100.00
7297;BME280;40758;54.038;11.684;2023-07-31T03:21:32;100539.28;;;12.50;100.00
7297;BME280;40758;54.038;11.684;2023-07-31T03:23:59;100542.00;;;12.50;100.00
7297;BME280;40758;54.038;11.684;2023-07-31T03:26:26;100537.75;;;12.55;100.00
7297;BME280;40758;54.038;11.684;2023-07-31T03:28:53;100549.22;;;12.57;100.00
7297;BME280;40758;54.038;11.684;2023-07-31T03:31:19;100543.84;;;12.73;100.00
7297;BME280;40758;54.038;11.684;2023-07-31T03:33:46;100540.81;;;12.70;100.00
7297;BME280;40758;54.038;11.684;2023-07-31T03:36:13;100547.41;;;12.74;100.00
7297;BME280;40758;54.038;11.684;2023-07-31T03:38:39;100534.81;;;12.85;100.00
7297;BME280;40758;54.038;11.684;2023-07-31T03:41:06;100537.41;;;12.91;100.00
7297;BME280;40758;54.038;11.684;2023-07-31T03:43:33;100531.53;;;12.83;100.00
7297;BME280;40758;54.038;11.684;2023-07-31T03:46:02;100538.97;;;12.87;100.00
7297;BME280;40758;54.038;11.684;2023-07-31T03:48:29;100545.69;;;12.96;100.00
7297;BME280;40758;54.038;11.684;2023-07-31T03:50:56;100534.09;;;12.89;100.00
7297;BME280;40758;54.038;11.684;2023-07-31T03:53:23;100541.56;;;12.94;100.00
7297;BME280;40758;54.038;11.684;2023-07-31T03:55:49;100539.56;;;12.89;100.00
7297;BME280;40758;54.038;11.684;2023-07-31T03:58:16;100527.72;;;12.84;100.00
7297;BME280;40758;54.038;11.684;2023-07-31T04:00:43;100541.22;;;12.90;100.00
7297;BME280;40758;54.038;11.684;2023-07-31T04:03:10;100545.69;;;12.96;100.00
7297;BME280;40758;54.038;11.684;2023-07-31T04:05:38;100541.53;;;13.05;100.00
7297;BME280;40758;54.038;11.684;2023-07-31T04:08:07;100531.28;;;13.13;100.00
7297;BME280;40758;54.038;11.684;2023-07-31T04:10:33;100539.47;;;13.13;100.00
7297;BME280;40758;54.038;11.684;2023-07-31T04:13:00;100525.34;;;13.16;100.00
7297;BME280;40758;54.038;11.684;2023-07-31T04:15:27;100531.97;;;13.20;100.00
7297;BME280;40758;54.038;11.684;2023-07-31T04:17:53;100524.78;;;13.14;100.00
7297;BME280;40758;54.038;11.684;2023-07-31T04:20:20;100525.13;;;13.17;100.00
7297;BME280;40758;54.038;11.684;2023-07-31T04:22:48;100524.19;;;13.23;100.00
7297;BME280;40758;54.038;11.684;2023-07-31T04:25:15;100522.53;;;13.22;100.00
7297;BME280;40758;54.038;11.684;2023-07-31T04:27:42;100516.91;;;13.29;100.00
7297;BME280;40758;54.038;11.684;2023-07-31T04:30:09;100516.41;;;13.32;100.00
7297;BME280;40758;54.038;11.684;2023-07-31T04:32:35;100507.75;;;13.35;100.00
7297;BME280;40758;54.038;11.684;2023-07-31T04:35:03;100505.19;;;13.28;100.00
7297;BME280;40758;54.038;11.684;2023-07-31T04:37:29;100516.03;;;13.40;100.00
7297;BME280;40758;54.038;11.684;2023-07-31T04:39:56;100504.03;;;13.41;100.00
7297;BME280;40758;54.038;11.684;2023-07-31T04:42:23;100517.69;;;13.41;100.00
7297;BME280;40758;54.038;11.684;2023-07-31T04:44:49;100512.47;;;13.40;100.00
7297;BME280;40758;54.038;11.684;2023-07-31T04:47:16;100511.34;;;13.52;100.00
7297;BME280;40758;54.038;11.684;2023-07-31T04:49:43;100517.38;;;13.54;100.00
7297;BME280;40758;54.038;11.684;2023-07-31T04:52:09;100516.28;;;13.55;100.00
7297;BME280;40758;54.038;11.684;2023-07-31T04:54:36;100508.53;;;13.64;100.00
7297;BME280;40758;54.038;11.684;2023-07-31T04:57:03;100495.28;;;13.73;100.00
7297;BME280;40758;54.038;11.684;2023-07-31T04:59:30;100505.06;;;13.69;100.00
7297;BME280;40758;54.038;11.684;2023-07-31T05:01:58;100506.38;;;13.66;100.00
7297;BME280;40758;54.038;11.684;2023-07-31T05:04:25;100496.72;;;13.75;100.00
7297;BME280;40758;54.038;11.684;2023-07-31T05:06:51;100503.47;;;13.73;100.00
7297;BME280;40758;54.038;11.684;2023-07-31T05:09:18;100507.53;;;13.87;100.00
7297;BME280;40758;54.038;11.684;2023-07-31T05:11:45;100501.66;;;13.95;100.00
7297;BME280;40758;54.038;11.684;2023-07-31T05:14:12;100508.94;;;14.06;100.00
7297;BME280;40758;54.038;11.684;2023-07-31T05:16:39;100496.09;;;14.07;100.00
7297;BME280;40758;54.038;11.684;2023-07-31T05:19:06;100493.47;;;13.95;100.00
7297;BME280;40758;54.038;11.684;2023-07-31T05:21:33;100485.53;;;13.94;100.00
7297;BME280;40758;54.038;11.684;2023-07-31T05:23:59;100494.22;;;13.91;100.00
7297;BME280;40758;54.038;11.684;2023-07-31T05:26:26;100481.25;;;13.98;100.00
7297;BME280;40758;54.038;11.684;2023-07-31T05:28:53;100475.59;;;14.04;100.00
7297;BME280;40758;54.038;11.684;2023-07-31T05:31:19;100481.19;;;14.15;100.00
7297;BME280;40758;54.038;11.684;2023-07-31T05:33:47;100473.84;;;14.15;100.00
7297;BME280;40758;54.038;11.684;2023-07-31T05:36:15;100472.59;;;14.23;100.00
7297;BME280;40758;54.038;11.684;2023-07-31T05:38:43;100477.28;;;14.27;100.00
7297;BME280;40758;54.038;11.684;2023-07-31T05:41:12;100481.56;;;14.40;100.00
7297;BME280;40758;54.038;11.684;2023-07-31T05:43:40;100477.75;;;14.41;100.00
7297;BME280;40758;54.038;11.684;2023-07-31T05:46:09;100482.66;;;14.39;100.00
7297;BME280;40758;54.038;11.684;2023-07-31T05:48:36;100476.66;;;14.42;100.00
7297;BME280;40758;54.038;11.684;2023-07-31T05:51:03;100477.19;;;14.39;100.00
7297;BME280;40758;54.038;11.684;2023-07-31T05:53:31;100463.94;;;14.48;100.00
7297;BME280;40758;54.038;11.684;2023-07-31T05:55:57;100465.91;;;14.52;100.00
7297;BME280;40758;54.038;11.684;2023-07-31T05:58:24;100467.06;;;14.56;100.00
7297;BME280;40758;54.038;11.684;2023-07-31T06:00:51;100469.28;;;14.43;100.00
7297;BME280;40758;54.038;11.684;2023-07-31T06:03:17;100468.56;;;14.47;100.00
7297;BME280;40758;54.038;11.684;2023-07-31T06:05:44;100466.56;;;14.43;100.00
7297;BME280;40758;54.038;11.684;2023-07-31T06:08:11;100471.03;;;14.49;100.00
7297;BME280;40758;54.038;11.684;2023-07-31T06:10:37;100471.09;;;14.54;100.00
7297;BME280;40758;54.038;11.684;2023-07-31T06:13:05;100457.00;;;14.62;100.00
7297;BME280;40758;54.038;11.684;2023-07-31T06:15:31;100459.53;;;14.69;100.00
7297;BME280;40758;54.038;11.684;2023-07-31T06:17:58;100457.91;;;14.68;100.00
7297;BME280;40758;54.038;11.684;2023-07-31T06:20:28;100447.06;;;14.78;100.00
7297;BME280;40758;54.038;11.684;2023-07-31T06:22:55;100451.63;;;14.67;100.00
7297;BME280;40758;54.038;11.684;2023-07-31T06:25:22;100446.16;;;14.67;100.00
7297;BME280;40758;54.038;11.684;2023-07-31T06:27:49;100450.06;;;14.54;100.00
7297;BME280;40758;54.038;11.684;2023-07-31T06:30:15;100443.84;;;14.59;100.00
7297;BME280;40758;54.038;11.684;2023-07-31T06:32:42;100450.66;;;14.56;100.00
7297;BME280;40758;54.038;11.684;2023-07-31T06:35:09;100434.44;;;14.72;100.00
7297;BME280;40758;54.038;11.684;2023-07-31T06:37:36;100432.47;;;14.94;100.00
7297;BME280;40758;54.038;11.684;2023-07-31T06:40:04;100422.63;;;15.20;100.00
7297;BME280;40758;54.038;11.684;2023-07-31T06:42:32;100421.53;;;15.21;100.00
7297;BME280;40758;54.038;11.684;2023-07-31T06:44:59;100423.13;;;15.17;100.00
7297;BME280;40758;54.038;11.684;2023-07-31T06:47:25;100428.72;;;15.27;100.00
7297;BME280;40758;54.038;11.684;2023-07-31T06:49:52;100412.69;;;15.41;100.00
7297;BME280;40758;54.038;11.684;2023-07-31T06:52:19;100422.72;;;15.62;100.00
7297;BME280;40758;54.038;11.684;2023-07-31T06:55:00;100417.59;;;15.71;100.00
7297;BME280;40758;54.038;11.684;2023-07-31T06:57:28;100405.53;;;15.67;100.00
7297;BME280;40758;54.038;11.684;2023-07-31T06:59:55;100402.88;;;15.77;100.00
7297;BME280;40758;54.038;11.684;2023-07-31T07:02:22;100390.88;;;15.88;100.00
7297;BME280;40758;54.038;11.684;2023-07-31T07:04:50;100401.56;;;15.90;100.00
7297;BME280;40758;54.038;11.684;2023-07-31T07:07:17;100402.19;;;16.02;100.00
7297;BME280;40758;54.038;11.684;2023-07-31T07:09:43;100399.47;;;16.07;100.00
7297;BME280;40758;54.038;11.684;2023-07-31T07:12:10;100394.47;;;15.94;100.00
7297;BME280;40758;54.038;11.684;2023-07-31T07:14:37;100392.38;;;16.16;100.00
7297;BME280;40758;54.038;11.684;2023-07-31T07:17:03;100387.44;;;16.08;100.00
7297;BME280;40758;54.038;11.684;2023-07-31T07:19:30;100390.94;;;15.99;100.00
7297;BME280;40758;54.038;11.684;2023-07-31T07:21:57;100396.56;;;15.82;100.00
7297;BME280;40758;54.038;11.684;2023-07-31T07:24:26;100402.88;;;15.82;100.00
7297;BME280;40758;54.038;11.684;2023-07-31T07:26:52;100400.91;;;15.73;100.00
7297;BME280;40758;54.038;11.684;2023-07-31T07:29:19;100403.31;;;15.64;100.00
7297;BME280;40758;54.038;11.684;2023-07-31T07:31:46;100397.59;;;15.65;100.00
7297;BME280;40758;54.038;11.684;2023-07-31T07:34:13;100405.69;;;15.55;100.00
7297;BME280;40758;54.038;11.684;2023-07-31T07:36:39;100403.97;;;15.44;100.00
7297;BME280;40758;54.038;11.684;2023-07-31T07:39:06;100392.28;;;15.59;100.00
7297;BME280;40758;54.038;11.684;2023-07-31T07:41:33;100401.31;;;15.54;100.00
7297;BME280;40758;54.038;11.684;2023-07-31T07:44:00;100393.94;;;15.55;100.00
7297;BME280;40758;54.038;11.684;2023-07-31T07:46:26;100401.22;;;15.81;100.00
7297;BME280;40758;54.038;11.684;2023-07-31T07:48:53;100392.41;;;16.21;100.00
7297;BME280;40758;54.038;11.684;2023-07-31T07:51:20;100402.28;;;16.22;100.00
7297;BME280;40758;54.038;11.684;2023-07-31T07:53:47;100398.16;;;16.15;100.00
7297;BME280;40758;54.038;11.684;2023-07-31T07:56:13;100385.03;;;16.27;100.00
7297;BME280;40758;54.038;11.684;2023-07-31T07:58:40;100395.72;;;16.29;100.00
7297;BME280;40758;54.038;11.684;2023-07-31T08:01:07;100403.59;;;16.72;100.00
7297;BME280;40758;54.038;11.684;2023-07-31T08:03:33;100389.63;;;16.84;100.00
7297;BME280;40758;54.038;11.684;2023-07-31T08:06:01;100386.81;;;16.59;100.00
7297;BME280;40758;54.038;11.684;2023-07-31T08:08:28;100395.94;;;16.85;100.00
7297;BME280;40758;54.038;11.684;2023-07-31T08:10:55;100391.56;;;16.84;100.00
7297;BME280;40758;54.038;11.684;2023-07-31T08:13:22;100394.31;;;17.04;100.00
7297;BME280;40758;54.038;11.684;2023-07-31T08:15:49;100378.72;;;16.99;100.00
7297;BME280;40758;54.038;11.684;2023-07-31T08:18:17;100398.13;;;16.78;100.00
7297;BME280;40758;54.038;11.684;2023-07-31T08:20:44;100399.44;;;16.65;100.00
7297;BME280;40758;54.038;11.684;2023-07-31T08:23:11;100390.66;;;16.63;100.00
7297;BME280;40758;54.038;11.684;2023-07-31T08:25:38;100393.13;;;16.69;100.00
7297;BME280;40758;54.038;11.684;2023-07-31T08:28:05;100397.34;;;16.87;100.00
7297;BME280;40758;54.038;11.684;2023-07-31T08:30:32;100388.84;;;16.99;100.00
7297;BME280;40758;54.038;11.684;2023-07-31T08:33:03;100381.97;;;16.91;100.00
7297;BME280;40758;54.038;11.684;2023-07-31T08:35:29;100390.63;;;16.58;100.00
7297;BME280;40758;54.038;11.684;2023-07-31T08:37:56;100385.63;;;16.39;100.00
7297;BME280;40758;54.038;11.684;2023-07-31T08:40:23;100383.69;;;16.25;100.00
7297;BME280;40758;54.038;11.684;2023-07-31T08:42:53;100393.31;;;16.37;100.00
7297;BME280;40758;54.038;11.684;2023-07-31T08:45:20;100389.19;;;16.35;100.00
7297;BME280;40758;54.038;11.684;2023-07-31T08:47:51;100386.38;;;16.19;100.00
7297;BME280;40758;54.038;11.684;2023-07-31T08:50:20;100385.81;;;16.12;100.00
7297;BME280;40758;54.038;11.684;2023-07-31T08:52:49;100379.75;;;16.10;100.00
7297;BME280;40758;54.038;11.684;2023-07-31T08:55:16;100389.56;;;15.96;100.00
7297;BME280;40758;54.038;11.684;2023-07-31T08:57:43;100390.16;;;16.08;100.00
7297;BME280;40758;54.038;11.684;2023-07-31T09:00:10;100374.38;;;16.31;100.00
7297;BME280;40758;54.038;11.684;2023-07-31T09:02:43;100369.47;;;16.38;100.00
7297;BME280;40758;54.038;11.684;2023-07-31T09:05:12;100372.50;;;16.36;100.00
7297;BME280;40758;54.038;11.684;2023-07-31T09:07:39;100359.13;;;16.55;100.00
7297;BME280;40758;54.038;11.684;2023-07-31T09:10:07;100356.41;;;16.65;100.00
7297;BME280;40758;54.038;11.684;2023-07-31T09:12:34;100356.19;;;16.92;100.00
7297;BME280;40758;54.038;11.684;2023-07-31T09:15:01;100352.63;;;16.97;100.00
7297;BME280;40758;54.038;11.684;2023-07-31T09:17:29;100358.66;;;16.84;100.00
7297;BME280;40758;54.038;11.684;2023-07-31T09:19:57;100358.03;;;16.66;100.00
7297;BME280;40758;54.038;11.684;2023-07-31T09:22:35;100366.78;;;16.63;100.00
7297;BME280;40758;54.038;11.684;2023-07-31T09:25:19;100357.47;;;16.54;100.00
7297;BME280;40758;54.038;11.684;2023-07-31T09:28:04;100369.25;;;16.55;100.00
7297;BME280;40758;54.038;11.684;2023-07-31T09:30:32;100368.72;;;16.53;100.00
7297;BME280;40758;54.038;11.684;2023-07-31T09:33:10;100367.31;;;16.50;100.00
7297;BME280;40758;54.038;11.684;2023-07-31T09:35:37;100368.69;;;16.42;100.00
7297;BME280;40758;54.038;11.684;2023-07-31T09:38:10;100368.41;;;16.49;100.00
7297;BME280;40758;54.038;11.684;2023-07-31T09:40:39;100364.03;;;16.48;100.00
7297;BME280;40758;54.038;11.684;2023-07-31T09:43:08;100355.28;;;16.61;100.00
7297;BME280;40758;54.038;11.684;2023-07-31T09:45:41;100348.78;;;16.78;100.00
7297;BME280;40758;54.038;11.684;2023-07-31T09:48:11;100353.72;;;16.96;100.00
7297;BME280;40758;54.038;11.684;2023-07-31T09:50:39;100339.19;;;16.95;100.00
7297;BME280;40758;54.038;11.684;2023-07-31T09:53:07;100352.63;;;17.33;100.00
7297;BME280;40758;54.038;11.684;2023-07-31T09:55:35;100349.88;;;17.48;100.00
7297;BME280;40758;54.038;11.684;2023-07-31T09:58:06;100355.38;;;17.38;100.00
7297;BME280;40758;54.038;11.684;2023-07-31T10:00:33;100349.34;;;17.15;100.00
7297;BME280;40758;54.038;11.684;2023-07-31T10:03:03;100338.38;;;16.90;100.00
7297;BME280;40758;54.038;11.684;2023-07-31T10:05:36;100352.63;;;16.77;100.00
7297;BME280;40758;54.038;11.684;2023-07-31T10:08:06;100341.59;;;16.61;100.00
7297;BME280;40758;54.038;11.684;2023-07-31T10:10:38;100347.06;;;16.56;100.00
7297;BME280;40758;54.038;11.684;2023-07-31T10:13:08;100341.38;;;16.73;100.00
7297;BME280;40758;54.038;11.684;2023-07-31T10:15:36;100333.97;;;16.79;100.00
7297;BME280;40758;54.038;11.684;2023-07-31T10:18:05;100344.88;;;16.63;100.00
7297;BME280;40758;54.038;11.684;2023-07-31T10:20:33;100333.09;;;16.68;100.00
7297;BME280;40758;54.038;11.684;2023-07-31T10:23:00;100329.53;;;16.62;100.00
7297;BME280;40758;54.038;11.684;2023-07-31T10:25:27;100317.22;;;16.70;100.00
7297;BME280;40758;54.038;11.684;2023-07-31T10:27:56;100309.25;;;16.68;100.00
7297;BME280;40758;54.038;11.684;2023-07-31T10:30:26;100300.75;;;16.65;100.00
7297;BME280;40758;54.038;11.684;2023-07-31T10:32:54;100300.53;;;16.82;100.00
7297;BME280;40758;54.038;11.684;2023-07-31T10:35:21;100306.00;;;17.12;100.00
7297;BME280;40758;54.038;11.684;2023-07-31T10:37:51;100306.81;;;17.33;100.00
7297;BME280;40758;54.038;11.684;2023-07-31T10:40:23;100297.19;;;17.41;100.00
7297;BME280;40758;54.038;11.684;2023-07-31T10:42:52;100305.41;;;17.51;100.00
7297;BME280;40758;54.038;11.684;2023-07-31T10:45:39;100291.44;;;17.27;100.00
7297;BME280;40758;54.038;11.684;2023-07-31T10:50:37;100296.59;;;17.59;100.00
7297;BME280;40758;54.038;11.684;2023-07-31T10:53:05;100297.03;;;17.97;100.00
7297;BME280;40758;54.038;11.684;2023-07-31T10:55:40;100293.75;;;18.00;100.00
7297;BME280;40758;54.038;11.684;2023-07-31T10:58:10;100284.50;;;17.75;100.00
7297;BME280;40758;54.038;11.684;2023-07-31T11:00:41;100275.78;;;17.38;100.00
7297;BME280;40758;54.038;11.684;2023-07-31T11:03:18;100276.09;;;17.26;100.00
7297;BME280;40758;54.038;11.684;2023-07-31T11:05:49;100276.09;;;17.21;100.00
7297;BME280;40758;54.038;11.684;2023-07-31T11:08:28;100273.88;;;17.33;100.00
7297;BME280;40758;54.038;11.684;2023-07-31T11:13:32;100281.28;;;16.66;100.00
7297;BME280;40758;54.038;11.684;2023-07-31T11:16:00;100286.44;;;16.27;100.00
7297;BME280;40758;54.038;11.684;2023-07-31T11:18:27;100293.75;;;16.01;100.00
7297;BME280;40758;54.038;11.684;2023-07-31T11:20:54;100303.00;;;15.90;100.00
7297;BME280;40758;54.038;11.684;2023-07-31T11:23:22;100310.66;;;15.88;100.00
7297;BME280;40758;54.038;11.684;2023-07-31T11:25:50;100306.75;;;15.74;100.00
7297;BME280;40758;54.038;11.684;2023-07-31T11:28:18;100304.19;;;15.62;100.00
7297;BME280;40758;54.038;11.684;2023-07-31T11:30:45;100296.38;;;15.33;100.00
7297;BME280;40758;54.038;11.684;2023-07-31T11:33:13;100286.47;;;15.27;100.00
7297;BME280;40758;54.038;11.684;2023-07-31T11:35:48;100293.34;;;15.35;100.00
7297;BME280;40758;54.038;11.684;2023-07-31T11:38:25;100287.06;;;15.34;100.00
7297;BME280;40758;54.038;11.684;2023-07-31T11:40:53;100281.63;;;15.39;100.00
7297;BME280;40758;54.038;11.684;2023-07-31T11:43:21;100274.59;;;15.54;100.00
7297;BME280;40758;54.038;11.684;2023-07-31T11:45:50;100272.78;;;15.69;100.00
7297;BME280;40758;54.038;11.684;2023-07-31T11:48:28;100274.97;;;15.62;100.00
7297;BME280;40758;54.038;11.684;2023-07-31T11:51:00;100268.91;;;15.60;100.00
7297;BME280;40758;54.038;11.684;2023-07-31T11:53:49;100264.50;;;15.59;100.00
7297;BME280;40758;54.038;11.684;2023-07-31T11:56:18;100265.38;;;15.65;100.00
7297;BME280;40758;54.038;11.684;2023-07-31T11:58:55;100261.84;;;15.69;100.00
7297;BME280;40758;54.038;11.684;2023-07-31T12:01:23;100270.34;;;15.73;100.00
7297;BME280;40758;54.038;11.684;2023-07-31T12:03:52;100268.69;;;15.67;100.00
7297;BME280;40758;54.038;11.684;2023-07-31T12:06:18;100265.19;;;15.82;100.00
7297;BME280;40758;54.038;11.684;2023-07-31T12:08:48;100264.09;;;15.78;100.00
7297;BME280;40758;54.038;11.684;2023-07-31T12:11:18;100255.31;;;15.81;100.00
7297;BME280;40758;54.038;11.684;2023-07-31T12:13:45;100245.19;;;15.81;100.00
7297;BME280;40758;54.038;11.684;2023-07-31T12:16:15;100242.19;;;15.78;100.00
7297;BME280;40758;54.038;11.684;2023-07-31T12:18:42;100232.88;;;15.79;100.00
7297;BME280;40758;54.038;11.684;2023-07-31T12:21:14;100229.88;;;15.80;100.00
7297;BME280;40758;54.038;11.684;2023-07-31T12:23:44;100229.34;;;15.88;100.00
7297;BME280;40758;54.038;11.684;2023-07-31T12:26:15;100218.72;;;16.02;100.00
7297;BME280;40758;54.038;11.684;2023-07-31T12:28:45;100228.34;;;16.25;100.00
7297;BME280;40758;54.038;11.684;2023-07-31T12:31:17;100219.31;;;16.35;100.00
7297;BME280;40758;54.038;11.684;2023-07-31T12:33:46;100209.47;;;16.54;100.00
7297;BME280;40758;54.038;11.684;2023-07-31T12:36:23;100213.56;;;16.52;100.00
7297;BME280;40758;54.038;11.684;2023-07-31T12:38:55;100229.75;;;16.43;100.00
7297;BME280;40758;54.038;11.684;2023-07-31T12:41:32;100229.97;;;16.21;100.00
7297;BME280;40758;54.038;11.684;2023-07-31T12:44:00;100224.75;;;16.09;100.00
7297;BME280;40758;54.038;11.684;2023-07-31T12:46:27;100219.31;;;16.19;100.00
7297;BME280;40758;54.038;11.684;2023-07-31T12:48:58;100224.50;;;16.21;100.00
7297;BME280;40758;54.038;11.684;2023-07-31T12:51:29;100231.34;;;16.29;100.00
7297;BME280;40758;54.038;11.684;2023-07-31T12:53:56;100215.47;;;16.46;100.00
7297;BME280;40758;54.038;11.684;2023-07-31T12:56:43;100219.63;;;16.84;100.00